KIPT/IPT METAR and TAF weather

Enter ICAO airport designator
Station Type Date Time Source
KIPT METAR 2019/05/26 00:54 UTC NOAA

KIPT 260054Z 15012KT 10SM CLR 23/15 A2996 RMK AO2 WSHFT 0023 SLP143 T02280150 $


Station Type Date Time Source
KIPT Decoded METAR 2019/05/26 00:54 UTC NOAA

WILLIAMSPORT-LYCOMING COUNTY, PA, United States (KIPT) 41-15N 076-55W 164M
May 25, 2019 - 08:54 PM EDT / 2019.05.26 0054 UTC
Wind: from the SSE (150 degrees) at 14 MPH (12 KT):0
Visibility: 10 mile(s):0
Sky conditions: clear
Temperature: 73.0 F (22.8 C)
Dew Point: 59.0 F (15.0 C)
Relative Humidity: 61%
Pressure (altimeter): 29.96 in. Hg (1014 hPa)
ob: KIPT 260054Z 15012KT 10SM CLR 23/15 A2996 RMK AO2 WSHFT 0023 SLP143 T02280150
cycle: 1

Station Type Date Time Source
KIPT TAF 2019/05/25 21:33 UTC NOAA

TAF
AMD KIPT 252031Z 2521/2618 15010G18KT P6SM SCT050
TEMPO 2521/2522 2SM +TSRA BR OVC040CB
FM260100 14010G18KT P6SM VCTS BKN040CB
TEMPO 2602/2604 27015G25KT 2SM -TSRA OVC030CB
FM260500 24008KT 5SM BR BKN090
FM261200 27007KT P6SM SCT050
FM261600 28010G18KT P6SM VCSH BKN050

Example: see airport list